sensor_id;sensor_type;location;lat;lon;timestamp;temperature;humidity
35258;DHT22;21385;50.878;8.050;2023-02-22T00:00:11;6.50;99.90
35258;DHT22;21385;50.878;8.050;2023-02-22T00:02:54;6.40;99.90
35258;DHT22;21385;50.878;8.050;2023-02-22T00:05:25;6.30;99.90
35258;DHT22;21385;50.878;8.050;2023-02-22T00:07:51;6.30;99.90
35258;DHT22;21385;50.878;8.050;2023-02-22T00:10:17;6.40;99.90
35258;DHT22;21385;50.878;8.050;2023-02-22T00:12:47;6.40;99.90
35258;DHT22;21385;50.878;8.050;2023-02-22T00:15:17;6.40;99.90
35258;DHT22;21385;50.878;8.050;2023-02-22T00:17:43;6.30;99.90
35258;DHT22;21385;50.878;8.050;2023-02-22T00:20:10;6.30;99.90
35258;DHT22;21385;50.878;8.050;2023-02-22T00:22:42;6.30;99.90
35258;DHT22;21385;50.878;8.050;2023-02-22T00:25:08;6.30;99.90
35258;DHT22;21385;50.878;8.050;2023-02-22T00:27:35;6.30;99.90
35258;DHT22;21385;50.878;8.050;2023-02-22T00:30:03;6.30;99.90
35258;DHT22;21385;50.878;8.050;2023-02-22T00:32:30;6.20;99.90
35258;DHT22;21385;50.878;8.050;2023-02-22T00:34:56;6.20;99.90
35258;DHT22;21385;50.878;8.050;2023-02-22T00:37:22;6.20;99.90
35258;DHT22;21385;50.878;8.050;2023-02-22T00:39:48;6.20;99.90
35258;DHT22;21385;50.878;8.050;2023-02-22T00:42:15;6.20;99.90
35258;DHT22;21385;50.878;8.050;2023-02-22T00:44:41;6.20;99.90
35258;DHT22;21385;50.878;8.050;2023-02-22T00:47:07;6.00;99.90
35258;DHT22;21385;50.878;8.050;2023-02-22T00:49:33;5.80;99.90
35258;DHT22;21385;50.878;8.050;2023-02-22T00:51:59;5.80;99.90
35258;DHT22;21385;50.878;8.050;2023-02-22T00:54:25;5.80;99.90
35258;DHT22;21385;50.878;8.050;2023-02-22T00:56:50;5.80;99.90
35258;DHT22;21385;50.878;8.050;2023-02-22T00:59:16;5.80;99.90
35258;DHT22;21385;50.878;8.050;2023-02-22T01:01:42;5.80;99.90
35258;DHT22;21385;50.878;8.050;2023-02-22T01:04:08;5.80;99.90
35258;DHT22;21385;50.878;8.050;2023-02-22T01:06:34;5.80;99.90
35258;DHT22;21385;50.878;8.050;2023-02-22T01:09:01;5.80;99.90
35258;DHT22;21385;50.878;8.050;2023-02-22T01:11:27;5.80;99.90
35258;DHT22;21385;50.878;8.050;2023-02-22T01:13:53;5.80;99.90
35258;DHT22;21385;50.878;8.050;2023-02-22T01:16:20;5.70;99.90
35258;DHT22;21385;50.878;8.050;2023-02-22T02:59:30;5.20;99.90
35258;DHT22;21385;50.878;8.050;2023-02-22T03:02:40;5.10;99.90
35258;DHT22;21385;50.878;8.050;2023-02-22T03:08:08;5.00;99.90
35258;DHT22;21385;50.878;8.050;2023-02-22T03:11:06;5.00;99.90
35258;DHT22;21385;50.878;8.050;2023-02-22T03:19:22;5.00;99.90
35258;DHT22;21385;50.878;8.050;2023-02-22T03:30:02;4.90;99.90
35258;DHT22;21385;50.878;8.050;2023-02-22T03:32:34;4.90;99.90
35258;DHT22;21385;50.878;8.050;2023-02-22T03:35:12;4.90;99.90
35258;DHT22;21385;50.878;8.050;2023-02-22T03:37:42;4.80;99.90
35258;DHT22;21385;50.878;8.050;2023-02-22T03:40:14;4.90;99.90
35258;DHT22;21385;50.878;8.050;2023-02-22T03:42:45;4.80;99.90
35258;DHT22;21385;50.878;8.050;2023-02-22T03:45:14;4.80;99.90
35258;DHT22;21385;50.878;8.050;2023-02-22T03:47:46;4.80;99.90
35258;DHT22;21385;50.878;8.050;2023-02-22T03:50:19;4.80;99.90
35258;DHT22;21385;50.878;8.050;2023-02-22T03:55:13;4.80;99.90
35258;DHT22;21385;50.878;8.050;2023-02-22T03:57:45;4.70;99.90
35258;DHT22;21385;50.878;8.050;2023-02-22T04:00:15;4.70;99.90
35258;DHT22;21385;50.878;8.050;2023-02-22T04:02:43;4.70;99.90
35258;DHT22;21385;50.878;8.050;2023-02-22T04:05:09;4.70;99.90
35258;DHT22;21385;50.878;8.050;2023-02-22T04:07:34;4.60;99.90
35258;DHT22;21385;50.878;8.050;2023-02-22T04:10:00;4.60;99.90
35258;DHT22;21385;50.878;8.050;2023-02-22T04:14:59;4.60;99.90
35258;DHT22;21385;50.878;8.050;2023-02-22T04:17:24;4.50;99.90
35258;DHT22;21385;50.878;8.050;2023-02-22T04:19:50;4.50;99.90
35258;DHT22;21385;50.878;8.050;2023-02-22T04:22:16;4.60;99.90
35258;DHT22;21385;50.878;8.050;2023-02-22T04:24:41;4.50;99.90
35258;DHT22;21385;50.878;8.050;2023-02-22T04:27:07;4.50;99.90
35258;DHT22;21385;50.878;8.050;2023-02-22T04:29:32;4.60;99.90
35258;DHT22;21385;50.878;8.050;2023-02-22T04:31:58;4.60;99.90
35258;DHT22;21385;50.878;8.050;2023-02-22T04:34:24;4.60;99.90
35258;DHT22;21385;50.878;8.050;2023-02-22T04:36:49;4.60;99.90
35258;DHT22;21385;50.878;8.050;2023-02-22T04:39:15;4.60;99.90
35258;DHT22;21385;50.878;8.050;2023-02-22T04:41:40;4.60;99.90
35258;DHT22;21385;50.878;8.050;2023-02-22T04:44:06;4.60;99.90
35258;DHT22;21385;50.878;8.050;2023-02-22T04:46:31;4.60;99.90
35258;DHT22;21385;50.878;8.050;2023-02-22T04:48:57;4.50;99.90
35258;DHT22;21385;50.878;8.050;2023-02-22T04:51:23;4.50;99.90
35258;DHT22;21385;50.878;8.050;2023-02-22T04:53:49;4.50;99.90
35258;DHT22;21385;50.878;8.050;2023-02-22T04:56:17;4.50;99.90
35258;DHT22;21385;50.878;8.050;2023-02-22T04:58:42;4.50;99.90
35258;DHT22;21385;50.878;8.050;2023-02-22T05:01:08;4.50;99.90
35258;DHT22;21385;50.878;8.050;2023-02-22T05:03:36;4.50;99.90
35258;DHT22;21385;50.878;8.050;2023-02-22T05:06:02;4.50;99.90
35258;DHT22;21385;50.878;8.050;2023-02-22T05:08:28;4.50;99.90
35258;DHT22;21385;50.878;8.050;2023-02-22T05:10:54;4.50;99.90
35258;DHT22;21385;50.878;8.050;2023-02-22T05:13:19;4.50;99.90
35258;DHT22;21385;50.878;8.050;2023-02-22T05:15:45;4.50;99.90
35258;DHT22;21385;50.878;8.050;2023-02-22T05:18:12;4.50;99.90
35258;DHT22;21385;50.878;8.050;2023-02-22T05:20:38;4.50;99.90
35258;DHT22;21385;50.878;8.050;2023-02-22T05:23:03;4.50;99.90
35258;DHT22;21385;50.878;8.050;2023-02-22T05:25:30;4.50;99.90
35258;DHT22;21385;50.878;8.050;2023-02-22T05:27:58;4.40;99.90
35258;DHT22;21385;50.878;8.050;2023-02-22T05:30:30;4.40;99.90
35258;DHT22;21385;50.878;8.050;2023-02-22T05:32:56;4.40;99.90
35258;DHT22;21385;50.878;8.050;2023-02-22T05:35:23;4.40;99.90
35258;DHT22;21385;50.878;8.050;2023-02-22T05:37:49;4.50;99.90
35258;DHT22;21385;50.878;8.050;2023-02-22T05:40:18;4.50;99.90
35258;DHT22;21385;50.878;8.050;2023-02-22T05:42:43;4.50;99.90
35258;DHT22;21385;50.878;8.050;2023-02-22T05:45:12;4.50;99.90
35258;DHT22;21385;50.878;8.050;2023-02-22T05:47:38;4.60;99.90
35258;DHT22;21385;50.878;8.050;2023-02-22T05:50:04;4.60;99.90
35258;DHT22;21385;50.878;8.050;2023-02-22T05:52:30;4.60;99.90
35258;DHT22;21385;50.878;8.050;2023-02-22T05:54:56;4.60;99.90
35258;DHT22;21385;50.878;8.050;2023-02-22T05:57:21;4.60;99.90
35258;DHT22;21385;50.878;8.050;2023-02-22T05:59:47;4.60;99.90
35258;DHT22;21385;50.878;8.050;2023-02-22T06:02:12;4.60;99.90
35258;DHT22;21385;50.878;8.050;2023-02-22T06:04:38;4.60;99.90
35258;DHT22;21385;50.878;8.050;2023-02-22T06:07:04;4.60;99.90
35258;DHT22;21385;50.878;8.050;2023-02-22T06:09:31;4.50;99.90
35258;DHT22;21385;50.878;8.050;2023-02-22T06:11:56;4.50;99.90
35258;DHT22;21385;50.878;8.050;2023-02-22T06:14:22;4.40;99.90
35258;DHT22;21385;50.878;8.050;2023-02-22T06:16:56;4.40;99.90
35258;DHT22;21385;50.878;8.050;2023-02-22T06:19:22;4.40;99.90
35258;DHT22;21385;50.878;8.050;2023-02-22T06:21:52;4.40;99.90
35258;DHT22;21385;50.878;8.050;2023-02-22T06:24:18;4.40;99.90
35258;DHT22;21385;50.878;8.050;2023-02-22T06:26:44;4.30;99.90
35258;DHT22;21385;50.878;8.050;2023-02-22T06:29:10;4.30;99.90
35258;DHT22;21385;50.878;8.050;2023-02-22T06:31:35;4.30;99.90
35258;DHT22;21385;50.878;8.050;2023-02-22T06:34:01;4.30;99.90
35258;DHT22;21385;50.878;8.050;2023-02-22T06:36:27;4.30;99.90
35258;DHT22;21385;50.878;8.050;2023-02-22T06:38:55;4.30;99.90
35258;DHT22;21385;50.878;8.050;2023-02-22T06:41:21;4.40;99.90
35258;DHT22;21385;50.878;8.050;2023-02-22T06:47:08;4.50;99.90
35258;DHT22;21385;50.878;8.050;2023-02-22T06:49:34;4.50;99.90
35258;DHT22;21385;50.878;8.050;2023-02-22T06:51:59;4.50;99.90
35258;DHT22;21385;50.878;8.050;2023-02-22T06:54:25;4.50;99.90
35258;DHT22;21385;50.878;8.050;2023-02-22T06:56:51;4.50;99.90
35258;DHT22;21385;50.878;8.050;2023-02-22T06:59:17;4.50;99.90
35258;DHT22;21385;50.878;8.050;2023-02-22T07:01:43;4.60;99.90
35258;DHT22;21385;50.878;8.050;2023-02-22T07:04:09;4.60;99.90
35258;DHT22;21385;50.878;8.050;2023-02-22T07:06:34;4.60;99.90
35258;DHT22;21385;50.878;8.050;2023-02-22T07:09:00;4.60;99.90
35258;DHT22;21385;50.878;8.050;2023-02-22T07:11:26;4.70;99.90
35258;DHT22;21385;50.878;8.050;2023-02-22T07:13:52;4.70;99.90
35258;DHT22;21385;50.878;8.050;2023-02-22T07:16:19;4.70;99.90
35258;DHT22;21385;50.878;8.050;2023-02-22T07:18:45;4.80;99.90
35258;DHT22;21385;50.878;8.050;2023-02-22T07:21:11;4.90;99.90
35258;DHT22;21385;50.878;8.050;2023-02-22T07:23:37;4.90;99.90
35258;DHT22;21385;50.878;8.050;2023-02-22T07:26:03;4.90;99.90
35258;DHT22;21385;50.878;8.050;2023-02-22T07:28:30;4.90;99.90
35258;DHT22;21385;50.878;8.050;2023-02-22T07:30:56;5.00;99.90
35258;DHT22;21385;50.878;8.050;2023-02-22T07:33:22;5.00;99.90
35258;DHT22;21385;50.878;8.050;2023-02-22T07:35:49;5.10;99.90
35258;DHT22;21385;50.878;8.050;2023-02-22T07:38:16;5.10;99.90
35258;DHT22;21385;50.878;8.050;2023-02-22T07:40:43;5.20;99.90
35258;DHT22;21385;50.878;8.050;2023-02-22T07:43:23;5.20;99.90
35258;DHT22;21385;50.878;8.050;2023-02-22T07:45:50;5.20;99.90
35258;DHT22;21385;50.878;8.050;2023-02-22T07:48:17;5.20;99.90
35258;DHT22;21385;50.878;8.050;2023-02-22T07:50:43;5.20;99.90
35258;DHT22;21385;50.878;8.050;2023-02-22T07:53:15;5.20;99.90
35258;DHT22;21385;50.878;8.050;2023-02-22T07:55:42;5.30;99.90
35258;DHT22;21385;50.878;8.050;2023-02-22T07:58:12;5.20;99.90
35258;DHT22;21385;50.878;8.050;2023-02-22T08:00:40;5.20;99.90
35258;DHT22;21385;50.878;8.050;2023-02-22T08:03:08;5.10;99.90
35258;DHT22;21385;50.878;8.050;2023-02-22T08:05:35;5.20;99.90
35258;DHT22;21385;50.878;8.050;2023-02-22T08:08:02;5.10;99.90
35258;DHT22;21385;50.878;8.050;2023-02-22T08:10:28;5.10;99.90
35258;DHT22;21385;50.878;8.050;2023-02-22T08:12:54;5.20;99.90
35258;DHT22;21385;50.878;8.050;2023-02-22T08:15:26;5.20;99.90
35258;DHT22;21385;50.878;8.050;2023-02-22T08:17:53;5.10;99.90
35258;DHT22;21385;50.878;8.050;2023-02-22T08:20:18;5.20;99.90
35258;DHT22;21385;50.878;8.050;2023-02-22T08:22:44;5.20;99.90
35258;DHT22;21385;50.878;8.050;2023-02-22T08:25:11;5.30;99.90
35258;DHT22;21385;50.878;8.050;2023-02-22T08:27:37;5.30;99.90
35258;DHT22;21385;50.878;8.050;2023-02-22T08:30:04;5.40;99.90
35258;DHT22;21385;50.878;8.050;2023-02-22T08:32:30;5.40;99.90
35258;DHT22;21385;50.878;8.050;2023-02-22T08:34:55;5.50;99.90
35258;DHT22;21385;50.878;8.050;2023-02-22T08:37:21;5.60;99.90
35258;DHT22;21385;50.878;8.050;2023-02-22T08:39:47;5.60;99.90
35258;DHT22;21385;50.878;8.050;2023-02-22T08:42:12;5.70;99.90
35258;DHT22;21385;50.878;8.050;2023-02-22T08:44:39;5.60;99.90
35258;DHT22;21385;50.878;8.050;2023-02-22T08:47:05;5.70;99.90
35258;DHT22;21385;50.878;8.050;2023-02-22T08:49:31;5.70;99.90
35258;DHT22;21385;50.878;8.050;2023-02-22T08:51:57;5.80;99.90
35258;DHT22;21385;50.878;8.050;2023-02-22T08:54:22;5.80;99.90
35258;DHT22;21385;50.878;8.050;2023-02-22T08:56:48;5.90;99.90
35258;DHT22;21385;50.878;8.050;2023-02-22T08:59:15;5.90;99.90
35258;DHT22;21385;50.878;8.050;2023-02-22T09:01:41;5.90;99.90
35258;DHT22;21385;50.878;8.050;2023-02-22T09:04:06;6.00;99.90
35258;DHT22;21385;50.878;8.050;2023-02-22T09:06:32;6.00;99.90
35258;DHT22;21385;50.878;8.050;2023-02-22T09:08:57;6.10;99.90
35258;DHT22;21385;50.878;8.050;2023-02-22T09:11:23;6.30;99.90
35258;DHT22;21385;50.878;8.050;2023-02-22T09:13:49;6.40;99.90
35258;DHT22;21385;50.878;8.050;2023-02-22T09:16:15;6.50;99.90
35258;DHT22;21385;50.878;8.050;2023-02-22T09:18:41;6.60;99.90
35258;DHT22;21385;50.878;8.050;2023-02-22T09:21:06;6.60;99.90
35258;DHT22;21385;50.878;8.050;2023-02-22T09:23:32;6.60;99.90
35258;DHT22;21385;50.878;8.050;2023-02-22T09:25:59;6.70;99.90
35258;DHT22;21385;50.878;8.050;2023-02-22T09:28:28;6.80;99.90
35258;DHT22;21385;50.878;8.050;2023-02-22T09:30:54;7.00;99.90
35258;DHT22;21385;50.878;8.050;2023-02-22T09:33:20;7.10;99.90
35258;DHT22;21385;50.878;8.050;2023-02-22T09:35:48;7.20;99.90
35258;DHT22;21385;50.878;8.050;2023-02-22T09:38:19;7.30;99.90
35258;DHT22;21385;50.878;8.050;2023-02-22T09:40:58;7.40;99.90
35258;DHT22;21385;50.878;8.050;2023-02-22T09:46:39;7.70;99.90
35258;DHT22;21385;50.878;8.050;2023-02-22T09:52:34;8.00;99.90
35258;DHT22;21385;50.878;8.050;2023-02-22T09:57:51;8.40;99.90
35258;DHT22;21385;50.878;8.050;2023-02-22T10:00:22;8.70;99.90
35258;DHT22;21385;50.878;8.050;2023-02-22T10:05:34;9.10;99.90
35258;DHT22;21385;50.878;8.050;2023-02-22T10:08:04;9.40;99.90
35258;DHT22;21385;50.878;8.050;2023-02-22T10:10:36;9.70;99.90
35258;DHT22;21385;50.878;8.050;2023-02-22T10:13:28;9.90;99.90
35258;DHT22;21385;50.878;8.050;2023-02-22T10:19:16;10.50;99.90
35258;DHT22;21385;50.878;8.050;2023-02-22T10:24:55;10.90;99.90
35258;DHT22;21385;50.878;8.050;2023-02-22T10:30:25;11.10;99.90
35258;DHT22;21385;50.878;8.050;2023-02-22T10:35:43;11.30;99.90
35258;DHT22;21385;50.878;8.050;2023-02-22T10:38:31;11.50;99.90
35258;DHT22;21385;50.878;8.050;2023-02-22T10:43:39;11.70;99.90
35258;DHT22;21385;50.878;8.050;2023-02-22T10:46:10;11.80;99.90
35258;DHT22;21385;50.878;8.050;2023-02-22T10:48:39;11.80;99.90
35258;DHT22;21385;50.878;8.050;2023-02-22T10:51:08;11.90;99.90
35258;DHT22;21385;50.878;8.050;2023-02-22T10:53:35;12.10;99.90
35258;DHT22;21385;50.878;8.050;2023-02-22T10:56:19;12.20;99.90
35258;DHT22;21385;50.878;8.050;2023-02-22T11:01:24;12.30;99.90
35258;DHT22;21385;50.878;8.050;2023-02-22T11:06:36;12.50;99.90
35258;DHT22;21385;50.878;8.050;2023-02-22T11:11:36;12.60;99.90
35258;DHT22;21385;50.878;8.050;2023-02-22T11:14:02;12.70;99.90
35258;DHT22;21385;50.878;8.050;2023-02-22T11:16:35;12.70;99.90
35258;DHT22;21385;50.878;8.050;2023-02-22T11:19:15;12.80;99.90
35258;DHT22;21385;50.878;8.050;2023-02-22T11:21:42;12.90;99.90
35258;DHT22;21385;50.878;8.050;2023-02-22T11:24:10;12.90;99.90
35258;DHT22;21385;50.878;8.050;2023-02-22T11:26:44;13.00;99.90
35258;DHT22;21385;50.878;8.050;2023-02-22T11:29:25;13.00;99.90
35258;DHT22;21385;50.878;8.050;2023-02-22T11:31:52;13.00;99.90
35258;DHT22;21385;50.878;8.050;2023-02-22T11:37:17;13.10;99.90
35258;DHT22;21385;50.878;8.050;2023-02-22T11:39:44;13.10;99.90
35258;DHT22;21385;50.878;8.050;2023-02-22T11:42:20;13.10;99.90
35258;DHT22;21385;50.878;8.050;2023-02-22T11:44:47;13.10;99.90
35258;DHT22;21385;50.878;8.050;2023-02-22T11:47:13;13.20;99.90
35258;DHT22;21385;50.878;8.050;2023-02-22T11:49:42;13.20;99.90
35258;DHT22;21385;50.878;8.050;2023-02-22T12:08:20;14.00;99.90
35258;DHT22;21385;50.878;8.050;2023-02-22T12:16:44;14.10;99.90
35258;DHT22;21385;50.878;8.050;2023-02-22T12:19:26;14.00;99.90
35258;DHT22;21385;50.878;8.050;2023-02-22T12:21:59;14.00;99.90
35258;DHT22;21385;50.878;8.050;2023-02-22T12:24:33;13.90;99.90
35258;DHT22;21385;50.878;8.050;2023-02-22T12:27:06;14.00;99.90
35258;DHT22;21385;50.878;8.050;2023-02-22T12:32:10;14.00;99.90
35258;DHT22;21385;50.878;8.050;2023-02-22T12:35:03;14.10;99.90
35258;DHT22;21385;50.878;8.050;2023-02-22T12:37:44;14.30;99.90
35258;DHT22;21385;50.878;8.050;2023-02-22T12:54:12;15.30;99.90
35258;DHT22;21385;50.878;8.050;2023-02-22T12:56:42;15.40;99.90
35258;DHT22;21385;50.878;8.050;2023-02-22T13:02:01;15.40;99.90
35258;DHT22;21385;50.878;8.050;2023-02-22T13:04:28;15.60;99.90
35258;DHT22;21385;50.878;8.050;2023-02-22T13:12:15;16.00;99.90
35258;DHT22;21385;50.878;8.050;2023-02-22T13:18:24;16.00;99.90
35258;DHT22;21385;50.878;8.050;2023-02-22T13:23:53;15.80;99.90
35258;DHT22;21385;50.878;8.050;2023-02-22T13:26:59;15.70;99.90
35258;DHT22;21385;50.878;8.050;2023-02-22T13:29:37;15.60;99.90
35258;DHT22;21385;50.878;8.050;2023-02-22T13:42:57;15.10;99.90
35258;DHT22;21385;50.878;8.050;2023-02-22T13:53:02;15.30;99.90
35258;DHT22;21385;50.878;8.050;2023-02-22T13:55:31;15.30;99.90
35258;DHT22;21385;50.878;8.050;2023-02-22T13:58:07;15.30;99.90
35258;DHT22;21385;50.878;8.050;2023-02-22T14:00:52;15.40;99.90
35258;DHT22;21385;50.878;8.050;2023-02-22T14:03:38;15.60;99.90
35258;DHT22;21385;50.878;8.050;2023-02-22T14:06:36;15.70;99.90
35258;DHT22;21385;50.878;8.050;2023-02-22T14:09:08;15.80;99.90
35258;DHT22;21385;50.878;8.050;2023-02-22T14:16:29;15.60;99.90
35258;DHT22;21385;50.878;8.050;2023-02-22T14:19:15;15.60;99.90
35258;DHT22;21385;50.878;8.050;2023-02-22T14:22:02;15.60;99.90
35258;DHT22;21385;50.878;8.050;2023-02-22T14:24:48;15.60;99.90
35258;DHT22;21385;50.878;8.050;2023-02-22T14:27:16;15.60;99.90
35258;DHT22;21385;50.878;8.050;2023-02-22T14:29:50;15.60;99.90
35258;DHT22;21385;50.878;8.050;2023-02-22T14:32:18;15.60;99.90
35258;DHT22;21385;50.878;8.050;2023-02-22T14:37:37;15.60;99.90
35258;DHT22;21385;50.878;8.050;2023-02-22T14:40:07;15.70;99.90
35258;DHT22;21385;50.878;8.050;2023-02-22T14:42:46;15.70;99.90
35258;DHT22;21385;50.878;8.050;2023-02-22T14:48:17;15.50;99.90
35258;DHT22;21385;50.878;8.050;2023-02-22T14:50:59;15.40;99.90
35258;DHT22;21385;50.878;8.050;2023-02-22T14:53:39;15.30;99.90
35258;DHT22;21385;50.878;8.050;2023-02-22T14:56:14;15.30;99.90
35258;DHT22;21385;50.878;8.050;2023-02-22T14:58:45;15.20;99.90
35258;DHT22;21385;50.878;8.050;2023-02-22T15:01:25;15.10;99.90
35258;DHT22;21385;50.878;8.050;2023-02-22T15:03:51;15.00;99.90
35258;DHT22;21385;50.878;8.050;2023-02-22T15:06:24;15.00;99.90
35258;DHT22;21385;50.878;8.050;2023-02-22T15:09:22;14.90;99.90
35258;DHT22;21385;50.878;8.050;2023-02-22T15:14:19;14.90;99.90
35258;DHT22;21385;50.878;8.050;2023-02-22T15:16:49;14.80;99.90
35258;DHT22;21385;50.878;8.050;2023-02-22T15:19:25;14.80;99.90
35258;DHT22;21385;50.878;8.050;2023-02-22T15:21:53;14.80;99.90
35258;DHT22;21385;50.878;8.050;2023-02-22T15:24:39;14.80;99.90
35258;DHT22;21385;50.878;8.050;2023-02-22T15:27:16;14.70;99.90
35258;DHT22;21385;50.878;8.050;2023-02-22T15:29:44;14.70;99.90
35258;DHT22;21385;50.878;8.050;2023-02-22T15:32:30;14.60;99.90
35258;DHT22;21385;50.878;8.050;2023-02-22T15:35:18;14.60;99.90
35258;DHT22;21385;50.878;8.050;2023-02-22T15:40:38;14.40;99.90
35258;DHT22;21385;50.878;8.050;2023-02-22T15:43:15;14.30;99.90
35258;DHT22;21385;50.878;8.050;2023-02-22T15:45:41;14.30;99.90
35258;DHT22;21385;50.878;8.050;2023-02-22T15:48:11;14.20;99.90
35258;DHT22;21385;50.878;8.050;2023-02-22T15:50:37;14.10;99.90
35258;DHT22;21385;50.878;8.050;2023-02-22T15:53:07;14.10;99.90
35258;DHT22;21385;50.878;8.050;2023-02-22T15:55:44;14.10;99.90
35258;DHT22;21385;50.878;8.050;2023-02-22T15:58:21;14.00;99.90
35258;DHT22;21385;50.878;8.050;2023-02-22T16:00:56;13.90;99.90
35258;DHT22;21385;50.878;8.050;2023-02-22T16:03:24;13.80;99.90
35258;DHT22;21385;50.878;8.050;2023-02-22T16:05:58;13.70;99.90
35258;DHT22;21385;50.878;8.050;2023-02-22T16:08:32;13.70;99.90
35258;DHT22;21385;50.878;8.050;2023-02-22T16:11:03;13.70;99.90
35258;DHT22;21385;50.878;8.050;2023-02-22T16:13:32;13.60;99.90
35258;DHT22;21385;50.878;8.050;2023-02-22T16:16:00;13.50;99.90
35258;DHT22;21385;50.878;8.050;2023-02-22T16:18:35;13.40;99.90
35258;DHT22;21385;50.878;8.050;2023-02-22T16:23:27;13.20;99.90
35258;DHT22;21385;50.878;8.050;2023-02-22T16:26:17;13.20;99.90
35258;DHT22;21385;50.878;8.050;2023-02-22T16:28:48;13.20;99.90
35258;DHT22;21385;50.878;8.050;2023-02-22T16:31:17;13.20;99.90
35258;DHT22;21385;50.878;8.050;2023-02-22T16:33:46;13.10;99.90
35258;DHT22;21385;50.878;8.050;2023-02-22T16:36:12;13.10;99.90
35258;DHT22;21385;50.878;8.050;2023-02-22T16:38:38;13.10;99.90
35258;DHT22;21385;50.878;8.050;2023-02-22T16:41:07;13.10;99.90
35258;DHT22;21385;50.878;8.050;2023-02-22T16:43:33;12.90;99.90
35258;DHT22;21385;50.878;8.050;2023-02-22T16:46:00;12.90;99.90
35258;DHT22;21385;50.878;8.050;2023-02-22T16:48:31;12.90;99.90
35258;DHT22;21385;50.878;8.050;2023-02-22T16:51:08;12.90;99.90
35258;DHT22;21385;50.878;8.050;2023-02-22T16:53:36;12.80;99.90
35258;DHT22;21385;50.878;8.050;2023-02-22T16:56:04;12.80;99.90
35258;DHT22;21385;50.878;8.050;2023-02-22T16:58:35;12.80;99.90
35258;DHT22;21385;50.878;8.050;2023-02-22T17:01:03;12.70;99.90
35258;DHT22;21385;50.878;8.050;2023-02-22T17:03:28;12.70;99.90
35258;DHT22;21385;50.878;8.050;2023-02-22T17:05:54;12.60;99.90
35258;DHT22;21385;50.878;8.050;2023-02-22T17:08:20;12.60;99.90
35258;DHT22;21385;50.878;8.050;2023-02-22T17:10:45;12.50;99.90
35258;DHT22;21385;50.878;8.050;2023-02-22T17:13:11;12.50;99.90
35258;DHT22;21385;50.878;8.050;2023-02-22T17:15:37;12.50;99.90
35258;DHT22;21385;50.878;8.050;2023-02-22T17:18:11;12.50;99.90
35258;DHT22;21385;50.878;8.050;2023-02-22T17:20:38;12.40;99.90
35258;DHT22;21385;50.878;8.050;2023-02-22T17:23:05;12.40;99.90
35258;DHT22;21385;50.878;8.050;2023-02-22T17:25:53;12.40;99.90
35258;DHT22;21385;50.878;8.050;2023-02-22T17:28:22;12.40;99.90
35258;DHT22;21385;50.878;8.050;2023-02-22T17:30:49;12.30;99.90
35258;DHT22;21385;50.878;8.050;2023-02-22T17:33:18;12.30;99.90
35258;DHT22;21385;50.878;8.050;2023-02-22T17:35:44;12.30;99.90
35258;DHT22;21385;50.878;8.050;2023-02-22T17:38:12;12.50;99.90
35258;DHT22;21385;50.878;8.050;2023-02-22T17:40:39;12.50;99.90
35258;DHT22;21385;50.878;8.050;2023-02-22T17:43:06;12.60;99.90
35258;DHT22;21385;50.878;8.050;2023-02-22T17:45:36;12.60;99.90
35258;DHT22;21385;50.878;8.050;2023-02-22T17:48:02;12.50;99.90
35258;DHT22;21385;50.878;8.050;2023-02-22T17:50:28;12.50;99.90
35258;DHT22;21385;50.878;8.050;2023-02-22T17:52:56;12.50;99.90
35258;DHT22;21385;50.878;8.050;2023-02-22T17:55:22;12.40;99.90
35258;DHT22;21385;50.878;8.050;2023-02-22T17:57:52;12.40;99.90
35258;DHT22;21385;50.878;8.050;2023-02-22T18:00:23;12.40;99.90
35258;DHT22;21385;50.878;8.050;2023-02-22T18:03:11;12.30;99.90
35258;DHT22;21385;50.878;8.050;2023-02-22T18:05:43;12.30;99.90
35258;DHT22;21385;50.878;8.050;2023-02-22T18:08:11;12.30;99.90
35258;DHT22;21385;50.878;8.050;2023-02-22T18:10:37;12.20;99.90
35258;DHT22;21385;50.878;8.050;2023-02-22T18:13:02;12.20;99.90
35258;DHT22;21385;50.878;8.050;2023-02-22T18:15:29;12.10;99.90
35258;DHT22;21385;50.878;8.050;2023-02-22T18:18:00;12.30;99.90
35258;DHT22;21385;50.878;8.050;2023-02-22T18:20:26;12.50;99.90
35258;DHT22;21385;50.878;8.050;2023-02-22T18:22:57;12.50;99.90
35258;DHT22;21385;50.878;8.050;2023-02-22T18:25:22;12.40;99.90
35258;DHT22;21385;50.878;8.050;2023-02-22T18:27:48;12.30;99.90
35258;DHT22;21385;50.878;8.050;2023-02-22T18:30:13;12.20;99.90
35258;DHT22;21385;50.878;8.050;2023-02-22T18:32:39;12.10;99.90
35258;DHT22;21385;50.878;8.050;2023-02-22T18:35:06;12.00;99.90
35258;DHT22;21385;50.878;8.050;2023-02-22T18:37:32;11.90;99.90
35258;DHT22;21385;50.878;8.050;2023-02-22T18:39:58;11.90;99.90
35258;DHT22;21385;50.878;8.050;2023-02-22T18:42:25;11.80;99.90
35258;DHT22;21385;50.878;8.050;2023-02-22T18:44:53;11.70;99.90
35258;DHT22;21385;50.878;8.050;2023-02-22T18:47:19;11.70;99.90
35258;DHT22;21385;50.878;8.050;2023-02-22T18:49:46;11.60;99.90
35258;DHT22;21385;50.878;8.050;2023-02-22T18:52:13;11.60;99.90
35258;DHT22;21385;50.878;8.050;2023-02-22T18:54:39;11.60;99.90
35258;DHT22;21385;50.878;8.050;2023-02-22T18:57:08;11.50;99.90
35258;DHT22;21385;50.878;8.050;2023-02-22T18:59:42;11.40;99.90
35258;DHT22;21385;50.878;8.050;2023-02-22T19:02:12;11.40;99.90
35258;DHT22;21385;50.878;8.050;2023-02-22T19:04:39;11.30;99.90
35258;DHT22;21385;50.878;8.050;2023-02-22T19:07:05;11.30;99.90
35258;DHT22;21385;50.878;8.050;2023-02-22T19:09:31;11.20;99.90
35258;DHT22;21385;50.878;8.050;2023-02-22T19:11:56;11.20;99.90
35258;DHT22;21385;50.878;8.050;2023-02-22T19:14:22;11.10;99.90
35258;DHT22;21385;50.878;8.050;2023-02-22T19:16:49;11.10;99.90
35258;DHT22;21385;50.878;8.050;2023-02-22T19:19:15;11.00;99.90
35258;DHT22;21385;50.878;8.050;2023-02-22T19:21:46;11.00;99.90
35258;DHT22;21385;50.878;8.050;2023-02-22T19:24:12;10.90;99.90
35258;DHT22;21385;50.878;8.050;2023-02-22T19:26:37;10.80;99.90
35258;DHT22;21385;50.878;8.050;2023-02-22T19:29:04;10.70;99.90
35258;DHT22;21385;50.878;8.050;2023-02-22T19:31:31;10.70;99.90
35258;DHT22;21385;50.878;8.050;2023-02-22T19:34:06;10.80;99.90
35258;DHT22;21385;50.878;8.050;2023-02-22T19:36:43;10.80;99.90
35258;DHT22;21385;50.878;8.050;2023-02-22T19:39:15;10.80;99.90
35258;DHT22;21385;50.878;8.050;2023-02-22T19:41:41;10.70;99.90
35258;DHT22;21385;50.878;8.050;2023-02-22T19:44:07;10.70;99.90
35258;DHT22;21385;50.878;8.050;2023-02-22T19:46:33;10.60;99.90
35258;DHT22;21385;50.878;8.050;2023-02-22T19:49:00;10.60;99.90
35258;DHT22;21385;50.878;8.050;2023-02-22T19:51:27;10.40;99.90
35258;DHT22;21385;50.878;8.050;2023-02-22T19:53:58;10.40;99.90
35258;DHT22;21385;50.878;8.050;2023-02-22T19:56:25;10.40;99.90
35258;DHT22;21385;50.878;8.050;2023-02-22T19:58:57;10.40;99.90
35258;DHT22;21385;50.878;8.050;2023-02-22T20:01:25;10.40;99.90
35258;DHT22;21385;50.878;8.050;2023-02-22T20:04:06;10.30;99.90